createdAt,value
2018-01-07T00:00:37.543Z,86.06
2018-01-07T00:03:13.026Z,86.13
2018-01-07T00:05:47.839Z,86.13
2018-01-07T00:08:23.016Z,86.22
2018-01-07T00:10:57.895Z,85.92
2018-01-07T00:13:33.284Z,85.88
2018-01-07T00:16:07.947Z,86.15
2018-01-07T00:18:43.024Z,86.05
2018-01-07T00:21:18.476Z,85.70
2018-01-07T00:23:53.239Z,85.74
2018-01-07T00:26:27.820Z,85.12
2018-01-07T00:29:03.085Z,84.92
2018-01-07T00:31:38.379Z,84.89
2018-01-07T00:34:13.239Z,84.70
2018-01-07T00:36:48.254Z,84.60
2018-01-07T00:39:22.895Z,84.82
2018-01-07T00:41:57.920Z,84.97
2018-01-07T00:44:33.075Z,85.14
2018-01-07T00:47:08.264Z,85.12
2018-01-07T00:49:42.934Z,85.13
2018-01-07T00:52:17.997Z,85.24
2018-01-07T00:54:53.264Z,84.88
2018-01-07T00:57:28.818Z,84.80
2018-01-07T01:00:03.187Z,84.67
2018-01-07T01:02:37.767Z,84.59
2018-01-07T01:05:13.211Z,84.47
2018-01-07T01:07:48.259Z,84.60
2018-01-07T01:10:22.868Z,84.31
2018-01-07T01:12:58.151Z,84.52
2018-01-07T01:15:32.951Z,84.69
2018-01-07T01:18:07.646Z,84.60
2018-01-07T01:20:43.095Z,84.62
2018-01-07T01:23:18.068Z,84.48
2018-01-07T01:25:53.175Z,84.54
2018-01-07T01:28:28.384Z,84.23
2018-01-07T01:31:03.955Z,84.25
2018-01-07T01:33:38.375Z,84.09
2018-01-07T01:36:13.152Z,84.14
2018-01-07T01:38:48.187Z,83.84
2018-01-07T01:41:23.404Z,84.03
2018-01-07T01:43:58.362Z,84.37
2018-01-07T01:46:33.463Z,84.71
2018-01-07T01:49:19.612Z,85.02
2018-01-07T01:51:54.513Z,85.20
2018-01-07T01:54:29.071Z,85.30
2018-01-07T01:57:04.232Z,85.61
2018-01-07T01:59:39.404Z,86.03
2018-01-07T02:02:14.966Z,86.02
2018-01-07T02:04:50.100Z,86.17
2018-01-07T02:07:25.286Z,86.36
2018-01-07T02:10:01.476Z,86.54
2018-01-07T02:12:36.659Z,86.75
2018-01-07T02:15:11.370Z,86.63
2018-01-07T02:17:46.079Z,86.65
2018-01-07T02:20:21.268Z,86.43
2018-01-07T02:22:56.550Z,86.61
2018-01-07T02:25:31.334Z,86.80
2018-01-07T02:28:06.090Z,86.86
2018-01-07T02:30:41.232Z,86.71
2018-01-07T02:33:16.388Z,86.73
2018-01-07T02:35:50.756Z,86.32
2018-01-07T02:38:26.235Z,85.69
2018-01-07T02:41:01.549Z,85.83
2018-01-07T02:43:37.112Z,85.88
2018-01-07T02:46:12.502Z,85.60
2018-01-07T02:48:47.500Z,85.79
2018-01-07T02:51:22.667Z,85.05
2018-01-07T02:53:58.236Z,84.67
2018-01-07T02:56:33.269Z,84.25
2018-01-07T02:59:08.688Z,83.33
2018-01-07T03:01:44.257Z,82.48
2018-01-07T03:04:19.349Z,81.76
2018-01-07T03:06:53.389Z,81.73
2018-01-07T03:09:28.881Z,80.41
2018-01-07T03:12:04.464Z,80.36
2018-01-07T03:14:39.756Z,79.82
2018-01-07T03:17:15.240Z,79.73
2018-01-07T03:19:50.420Z,79.66
2018-01-07T03:22:25.596Z,79.39
2018-01-07T03:25:01.710Z,79.16
2018-01-07T03:27:36.347Z,78.86
2018-01-07T03:30:11.326Z,79.40
2018-01-07T03:32:46.551Z,79.60
2018-01-07T03:35:21.709Z,79.71
2018-01-07T03:37:56.685Z,79.74
2018-01-07T03:40:31.040Z,79.71
2018-01-07T03:43:06.520Z,79.99
2018-01-07T03:45:41.443Z,79.86
2018-01-07T03:48:15.520Z,80.12
2018-01-07T03:50:50.372Z,80.32
2018-01-07T03:53:25.405Z,80.30
2018-01-07T03:56:01.669Z,80.52
2018-01-07T03:58:36.907Z,80.57
2018-01-07T04:01:11.810Z,80.49
2018-01-07T04:03:46.796Z,80.61
2018-01-07T04:06:21.377Z,80.53
2018-01-07T04:08:57.415Z,80.62
2018-01-07T04:11:32.394Z,80.72
2018-01-07T04:14:07.704Z,80.50
2018-01-07T04:16:42.159Z,80.55
2018-01-07T04:19:16.751Z,80.78
2018-01-07T04:21:51.976Z,80.91
2018-01-07T04:24:26.668Z,81.10
2018-01-07T04:27:01.885Z,81.08
2018-01-07T04:29:36.549Z,80.92
2018-01-07T04:32:11.528Z,81.04
2018-01-07T04:34:46.779Z,81.47
2018-01-07T04:37:21.798Z,81.61
2018-01-07T04:39:56.557Z,81.52
2018-01-07T04:42:31.508Z,81.97
2018-01-07T04:45:06.663Z,81.70
2018-01-07T04:47:41.936Z,81.27
2018-01-07T04:50:17.677Z,81.30
2018-01-07T04:52:52.633Z,81.15
2018-01-07T04:55:27.814Z,80.98
2018-01-07T04:58:02.962Z,81.37
2018-01-07T05:00:38.576Z,81.42
2018-01-07T05:03:13.509Z,81.37
2018-01-07T05:05:48.780Z,81.37
2018-01-07T05:08:23.482Z,81.36
2018-01-07T05:10:58.796Z,81.48
2018-01-07T05:13:33.546Z,81.29
2018-01-07T05:16:08.870Z,81.31
2018-01-07T05:18:43.533Z,81.55
2018-01-07T05:21:18.132Z,81.38
2018-01-07T05:23:52.821Z,81.39
2018-01-07T05:26:27.653Z,81.94
2018-01-07T05:29:02.696Z,82.31
2018-01-07T05:31:37.168Z,82.35
2018-01-07T05:34:12.423Z,82.39
2018-01-07T05:36:47.737Z,82.46
2018-01-07T05:39:23.015Z,82.37
2018-01-07T05:41:57.772Z,82.82
2018-01-07T05:44:33.098Z,82.87
2018-01-07T05:47:08.869Z,82.83
2018-01-07T05:49:43.851Z,83.00
2018-01-07T05:52:19.120Z,82.97
2018-01-07T05:54:53.844Z,83.02
2018-01-07T05:57:28.796Z,83.18
2018-01-07T06:00:03.824Z,83.37
2018-01-07T06:02:39.000Z,83.31
2018-01-07T06:05:14.296Z,83.08
2018-01-07T06:07:49.005Z,83.15
2018-01-07T06:10:23.968Z,83.27
2018-01-07T06:12:58.951Z,83.23
2018-01-07T06:15:34.108Z,83.13
2018-01-07T06:18:09.615Z,83.27
2018-01-07T06:20:44.868Z,83.37
2018-01-07T06:23:20.151Z,83.51
2018-01-07T06:25:55.765Z,84.01
2018-01-07T06:28:30.760Z,83.98
2018-01-07T06:31:05.253Z,83.95
2018-01-07T06:33:39.843Z,83.97
2018-01-07T06:36:14.759Z,83.78
2018-01-07T06:38:50.175Z,83.92
2018-01-07T06:41:25.136Z,83.96
2018-01-07T06:44:00.738Z,83.67
2018-01-07T06:46:35.868Z,83.78
2018-01-07T06:49:10.999Z,83.83
2018-01-07T06:51:45.458Z,83.65
2018-01-07T06:54:20.823Z,83.64
2018-01-07T06:56:55.498Z,83.85
2018-01-07T06:59:30.380Z,84.18
2018-01-07T07:02:05.152Z,84.00
2018-01-07T07:04:39.910Z,84.26
2018-01-07T07:07:14.849Z,84.27
2018-01-07T07:09:50.131Z,84.02
2018-01-07T07:12:25.692Z,84.10
2018-01-07T07:15:02.287Z,83.83
2018-01-07T07:17:37.181Z,83.79
2018-01-07T07:20:11.871Z,84.11
2018-01-07T07:22:47.181Z,83.93
2018-01-07T07:25:22.794Z,84.04
2018-01-07T07:27:57.191Z,84.23
2018-01-07T07:30:32.976Z,83.96
2018-01-07T07:33:08.057Z,83.90
2018-01-07T07:35:42.903Z,84.35
2018-01-07T07:38:18.017Z,84.22
2018-01-07T07:40:52.581Z,84.20
2018-01-07T07:43:27.064Z,83.67
2018-01-07T07:46:02.461Z,83.86
2018-01-07T07:48:37.836Z,83.89
2018-01-07T07:51:12.207Z,84.11
2018-01-07T07:53:46.864Z,83.63
2018-01-07T07:56:21.965Z,83.45
2018-01-07T07:58:56.800Z,83.63
2018-01-07T08:01:31.181Z,83.61
2018-01-07T08:04:06.116Z,83.56
2018-01-07T08:06:41.022Z,84.26
2018-01-07T08:09:15.355Z,84.37
2018-01-07T08:11:50.627Z,84.37
2018-01-07T08:14:25.273Z,84.18
2018-01-07T08:17:00.043Z,84.36
2018-01-07T08:19:35.263Z,84.33
2018-01-07T08:22:10.072Z,84.41
2018-01-07T08:24:45.272Z,84.53
2018-01-07T08:27:20.427Z,84.39
2018-01-07T08:29:55.083Z,84.34
2018-01-07T08:32:30.092Z,84.38
2018-01-07T08:35:05.552Z,84.34
2018-01-07T08:37:41.136Z,84.48
2018-01-07T08:40:16.411Z,84.67
2018-01-07T08:42:51.434Z,84.89
2018-01-07T08:45:26.547Z,84.93
2018-01-07T08:48:02.532Z,84.68
2018-01-07T08:50:37.321Z,84.37
2018-01-07T08:53:12.578Z,84.27
2018-01-07T08:55:48.206Z,83.98
2018-01-07T08:58:23.188Z,84.03
2018-01-07T09:00:57.663Z,84.24
2018-01-07T09:03:33.180Z,84.99
2018-01-07T09:06:08.425Z,84.92
2018-01-07T09:08:43.093Z,84.89
2018-01-07T09:11:17.673Z,84.74
2018-01-07T09:13:52.247Z,84.24
2018-01-07T09:16:26.642Z,84.09
2018-01-07T09:19:02.569Z,83.95
2018-01-07T09:21:37.229Z,83.78
2018-01-07T09:24:11.599Z,84.03
2018-01-07T09:26:46.348Z,83.92
2018-01-07T09:29:21.478Z,83.85
2018-01-07T09:31:57.059Z,84.01
2018-01-07T09:34:32.150Z,84.08
2018-01-07T09:37:07.503Z,84.42
2018-01-07T09:39:42.680Z,84.49
2018-01-07T09:42:18.352Z,84.29
2018-01-07T09:44:53.244Z,84.40
2018-01-07T09:47:28.632Z,84.51
2018-01-07T09:50:03.805Z,84.54
2018-01-07T09:52:39.310Z,84.44
2018-01-07T09:55:13.854Z,84.60
2018-01-07T09:57:49.307Z,84.33
2018-01-07T10:00:24.053Z,84.36
2018-01-07T10:02:59.438Z,84.19
2018-01-07T10:05:34.709Z,84.01
2018-01-07T10:08:09.942Z,83.64
2018-01-07T10:10:45.319Z,83.84
2018-01-07T10:13:20.724Z,83.97
2018-01-07T10:15:55.466Z,83.64
2018-01-07T10:18:30.279Z,83.66
2018-01-07T10:21:05.441Z,83.88
2018-01-07T10:23:40.436Z,83.48
2018-01-07T10:26:15.618Z,83.35
2018-01-07T10:28:50.907Z,83.58
2018-01-07T10:31:25.628Z,83.61
2018-01-07T10:34:00.915Z,83.76
2018-01-07T10:36:36.529Z,84.05
2018-01-07T10:39:11.933Z,83.24
2018-01-07T10:41:46.447Z,83.13
2018-01-07T10:44:21.413Z,82.64
2018-01-07T10:46:56.194Z,81.94
2018-01-07T10:49:30.968Z,81.73
2018-01-07T10:52:06.440Z,81.94
2018-01-07T10:54:41.492Z,82.56
2018-01-07T10:57:16.760Z,82.75
2018-01-07T10:59:51.956Z,82.85
2018-01-07T11:02:33.109Z,82.75
2018-01-07T11:05:08.526Z,82.95
2018-01-07T11:07:43.616Z,82.64
2018-01-07T11:10:18.934Z,82.65
2018-01-07T11:12:53.557Z,82.85
2018-01-07T11:15:28.559Z,82.55
2018-01-07T11:18:03.401Z,81.92
2018-01-07T11:20:38.657Z,81.12
2018-01-07T11:23:13.924Z,81.21
2018-01-07T11:25:48.887Z,81.76
2018-01-07T11:28:24.070Z,81.56
2018-01-07T11:30:58.848Z,81.33
2018-01-07T11:33:33.526Z,81.54
2018-01-07T11:36:08.218Z,81.57
2018-01-07T11:38:42.992Z,81.01
2018-01-07T11:41:18.063Z,81.18
2018-01-07T11:43:53.532Z,81.01
2018-01-07T11:46:28.495Z,80.54
2018-01-07T11:49:02.989Z,80.46
2018-01-07T11:51:38.486Z,80.07
2018-01-07T11:54:13.772Z,79.97
2018-01-07T11:56:48.812Z,80.13
2018-01-07T11:59:23.975Z,80.99
2018-01-07T12:01:58.730Z,81.47
2018-01-07T12:04:33.704Z,81.10
2018-01-07T12:07:08.945Z,80.66
2018-01-07T12:09:44.701Z,80.88
2018-01-07T12:12:19.682Z,81.24
2018-01-07T12:14:54.888Z,80.97
2018-01-07T12:17:29.253Z,81.01
2018-01-07T12:20:04.805Z,80.95
2018-01-07T12:22:40.020Z,80.72
2018-01-07T12:25:14.732Z,81.15
2018-01-07T12:27:49.913Z,80.88
2018-01-07T12:30:24.283Z,80.83
2018-01-07T12:32:58.874Z,80.71
2018-01-07T12:35:33.672Z,80.73
2018-01-07T12:38:09.009Z,80.67
2018-01-07T12:40:43.523Z,80.71
2018-01-07T12:43:19.124Z,80.79
2018-01-07T12:45:53.659Z,81.05
2018-01-07T12:48:29.098Z,80.94
2018-01-07T12:51:03.763Z,80.66
2018-01-07T12:53:38.823Z,80.62
2018-01-07T12:56:14.203Z,80.69
2018-01-07T12:58:49.172Z,80.02
2018-01-07T13:01:25.056Z,78.97
2018-01-07T13:03:59.859Z,78.92
2018-01-07T13:06:34.971Z,77.65
2018-01-07T13:09:10.232Z,77.46
2018-01-07T13:11:45.333Z,77.78
2018-01-07T13:14:19.812Z,76.85
2018-01-07T13:16:54.985Z,77.30
2018-01-07T13:19:30.140Z,77.01
2018-01-07T13:22:05.041Z,77.29
2018-01-07T13:24:40.251Z,77.38
2018-01-07T13:27:15.099Z,78.09
2018-01-07T13:29:49.799Z,77.91
2018-01-07T13:32:25.117Z,77.27
2018-01-07T13:34:59.799Z,77.98
2018-01-07T13:37:35.018Z,77.59
2018-01-07T13:40:10.283Z,77.36
2018-01-07T13:42:44.744Z,77.31
2018-01-07T13:45:19.919Z,76.24
2018-01-07T13:47:55.121Z,76.00
2018-01-07T13:50:29.793Z,76.60
2018-01-07T13:53:05.199Z,76.45
2018-01-07T13:55:40.308Z,76.33
2018-01-07T13:58:14.900Z,76.61
2018-01-07T14:00:50.267Z,76.66
2018-01-07T14:03:25.464Z,76.60
2018-01-07T14:05:59.944Z,76.77
2018-01-07T14:08:34.339Z,76.25
2018-01-07T14:11:09.146Z,75.91
2018-01-07T14:13:44.153Z,75.82
2018-01-07T14:16:19.346Z,76.09
2018-01-07T14:18:53.987Z,76.78
2018-01-07T14:21:28.981Z,76.99
2018-01-07T14:24:04.355Z,76.49
2018-01-07T14:26:39.857Z,76.63
2018-01-07T14:29:15.067Z,77.24
2018-01-07T14:31:50.351Z,76.98
2018-01-07T14:34:25.880Z,76.70
2018-01-07T14:37:01.046Z,76.50
2018-01-07T14:39:35.072Z,76.44
2018-01-07T14:42:09.866Z,76.55
2018-01-07T14:44:45.140Z,76.74
2018-01-07T14:47:19.572Z,76.88
2018-01-07T14:49:54.943Z,77.46
2018-01-07T14:52:30.217Z,77.82
2018-01-07T14:55:05.402Z,77.50
2018-01-07T14:57:40.019Z,77.54
2018-01-07T15:00:15.263Z,77.58
2018-01-07T15:02:50.035Z,77.94
2018-01-07T15:05:25.119Z,78.32
2018-01-07T15:07:59.568Z,78.29
2018-01-07T15:10:35.024Z,78.33
2018-01-07T15:13:10.400Z,78.50
2018-01-07T15:15:46.083Z,78.80
2018-01-07T15:18:21.368Z,79.10
2018-01-07T15:20:56.412Z,79.15
2018-01-07T15:23:31.422Z,79.12
2018-01-07T15:26:07.103Z,79.51
2018-01-07T15:28:41.859Z,79.56
2018-01-07T15:31:16.308Z,79.70
2018-01-07T15:33:51.106Z,79.66
2018-01-07T15:36:26.185Z,79.93
2018-01-07T15:39:01.459Z,79.71
2018-01-07T15:41:36.296Z,79.25
2018-01-07T15:44:10.468Z,79.15
2018-01-07T15:46:44.795Z,79.41
2018-01-07T15:49:19.469Z,79.51
2018-01-07T15:51:54.109Z,79.67
2018-01-07T15:54:29.224Z,79.71
2018-01-07T15:57:04.816Z,79.64
2018-01-07T15:59:39.796Z,79.38
2018-01-07T16:02:15.351Z,79.33
2018-01-07T16:04:50.020Z,79.00
2018-01-07T16:07:25.180Z,78.86
2018-01-07T16:10:00.262Z,78.93
2018-01-07T16:12:35.519Z,79.11
2018-01-07T16:15:10.746Z,79.55
2018-01-07T16:17:45.894Z,79.31
2018-01-07T16:20:20.482Z,78.94
2018-01-07T16:22:55.360Z,78.94
2018-01-07T16:25:30.324Z,78.92
2018-01-07T16:28:05.179Z,78.87
2018-01-07T16:30:40.271Z,78.90
2018-01-07T16:33:15.723Z,78.42
2018-01-07T16:35:50.696Z,78.07
2018-01-07T16:38:25.751Z,78.49
2018-01-07T16:41:00.036Z,78.30
2018-01-07T16:43:34.585Z,78.67
2018-01-07T16:46:09.750Z,77.98
2018-01-07T16:48:44.312Z,78.09
2018-01-07T16:51:19.659Z,78.09
2018-01-07T16:53:54.643Z,78.01
2018-01-07T16:56:29.294Z,78.00
2018-01-07T16:59:04.535Z,78.26
2018-01-07T17:01:39.727Z,78.50
2018-01-07T17:04:15.313Z,78.72
2018-01-07T17:06:50.533Z,78.70
2018-01-07T17:09:25.403Z,78.76
2018-01-07T17:12:00.583Z,78.67
2018-01-07T17:14:35.642Z,78.39
2018-01-07T17:17:10.153Z,78.66
2018-01-07T17:19:45.413Z,78.96
2018-01-07T17:22:20.424Z,79.31
2018-01-07T17:24:55.431Z,79.70
2018-01-07T17:27:30.603Z,80.08
2018-01-07T17:30:05.760Z,80.54
2018-01-07T17:32:40.529Z,80.48
2018-01-07T17:35:15.825Z,80.71
2018-01-07T17:37:50.515Z,80.94
2018-01-07T17:40:24.870Z,80.89
2018-01-07T17:42:59.472Z,80.79
2018-01-07T17:45:33.833Z,80.95
2018-01-07T17:48:08.750Z,81.05
2018-01-07T17:50:43.944Z,81.27
2018-01-07T17:53:19.395Z,81.15
2018-01-07T17:55:54.760Z,81.09
2018-01-07T17:58:29.915Z,81.26
2018-01-07T18:01:05.552Z,81.51
2018-01-07T18:03:40.597Z,81.79
2018-01-07T18:06:15.750Z,82.05
2018-01-07T18:08:50.922Z,82.07
2018-01-07T18:11:25.480Z,82.06
2018-01-07T18:14:00.821Z,82.30
2018-01-07T18:16:35.583Z,82.62
2018-01-07T18:19:10.876Z,82.41
2018-01-07T18:21:46.057Z,82.53
2018-01-07T18:24:20.620Z,82.70
2018-01-07T18:26:55.584Z,82.94
2018-01-07T18:29:30.671Z,83.15
2018-01-07T18:32:05.891Z,83.37
2018-01-07T18:34:40.656Z,83.51
2018-01-07T18:37:15.592Z,83.66
2018-01-07T18:39:50.132Z,83.86
2018-01-07T18:42:24.803Z,84.12
2018-01-07T18:44:59.556Z,83.84
2018-01-07T18:47:34.829Z,84.21
2018-01-07T18:50:09.900Z,84.26
2018-01-07T18:52:44.963Z,84.38
2018-01-07T18:55:19.639Z,84.48
2018-01-07T18:57:54.796Z,84.63
2018-01-07T19:00:29.907Z,84.79
2018-01-07T19:03:04.319Z,85.21
2018-01-07T19:05:38.887Z,85.26
2018-01-07T19:08:13.767Z,85.33
2018-01-07T19:10:48.735Z,85.67
2018-01-07T19:13:23.900Z,86.19
2018-01-07T19:15:58.970Z,86.24
2018-01-07T19:18:34.536Z,85.94
2018-01-07T19:21:09.934Z,86.18
2018-01-07T19:23:45.240Z,86.53
2018-01-07T19:26:20.710Z,86.56
2018-01-07T19:28:55.917Z,86.73
2018-01-07T19:31:31.002Z,87.00
2018-01-07T19:34:06.602Z,87.10
2018-01-07T19:36:41.731Z,86.98
2018-01-07T19:39:16.999Z,86.97
2018-01-07T19:41:52.151Z,86.48
2018-01-07T19:44:26.771Z,86.57
2018-01-07T19:47:02.122Z,86.82
2018-01-07T19:49:37.392Z,87.11
2018-01-07T19:52:12.774Z,87.34
2018-01-07T19:54:48.111Z,87.05
2018-01-07T19:57:22.441Z,86.80
2018-01-07T19:59:57.717Z,86.86
2018-01-07T20:02:33.011Z,86.83
2018-01-07T20:05:08.065Z,86.33
2018-01-07T20:07:43.151Z,86.14
2018-01-07T20:10:17.731Z,86.10
2018-01-07T20:12:52.456Z,86.63
2018-01-07T20:15:26.834Z,86.74
2018-01-07T20:18:01.851Z,87.24
2018-01-07T20:20:36.803Z,87.83
2018-01-07T20:23:12.111Z,88.34
2018-01-07T20:25:47.131Z,88.57
2018-01-07T20:28:22.265Z,88.27
2018-01-07T20:30:57.187Z,87.86
2018-01-07T20:33:32.461Z,88.05
2018-01-07T20:36:08.124Z,88.44
2018-01-07T20:38:42.979Z,88.74
2018-01-07T20:41:18.518Z,88.87
2018-01-07T20:43:53.383Z,88.67
2018-01-07T20:46:27.995Z,88.35
2018-01-07T20:49:04.251Z,88.14
2018-01-07T20:51:38.971Z,88.01
2018-01-07T20:54:13.868Z,87.90
2018-01-07T20:56:48.756Z,88.19
2018-01-07T20:59:23.577Z,88.12
2018-01-07T21:01:58.248Z,88.02
2018-01-07T21:04:32.952Z,87.76
2018-01-07T21:07:08.312Z,87.88
2018-01-07T21:09:43.372Z,87.83
2018-01-07T21:12:18.124Z,88.02
2018-01-07T21:14:52.664Z,87.97
2018-01-07T21:17:27.210Z,88.01
2018-01-07T21:20:02.016Z,87.87
2018-01-07T21:22:37.222Z,87.85
2018-01-07T21:25:11.898Z,87.98
2018-01-07T21:27:47.462Z,87.82
2018-01-07T21:30:22.211Z,87.92
2018-01-07T21:32:57.492Z,87.64
2018-01-07T21:35:32.067Z,87.79
2018-01-07T21:38:06.719Z,87.85
2018-01-07T21:40:42.278Z,87.99
2018-01-07T21:43:17.371Z,88.04
2018-01-07T21:45:52.435Z,88.16
2018-01-07T21:48:26.928Z,88.16
2018-01-07T21:51:01.407Z,88.19
2018-01-07T21:53:37.019Z,87.99
2018-01-07T21:56:11.736Z,87.90
2018-01-07T21:58:47.175Z,87.68
2018-01-07T22:01:33.301Z,87.49
2018-01-07T22:04:10.771Z,87.42
2018-01-07T22:06:56.555Z,87.51
2018-01-07T22:09:31.290Z,87.70
2018-01-07T22:12:06.146Z,87.73
2018-01-07T22:14:41.185Z,87.81
2018-01-07T22:17:16.567Z,88.04
2018-01-07T22:19:51.659Z,87.76
2018-01-07T22:22:26.152Z,87.76
2018-01-07T22:25:01.435Z,87.93
2018-01-07T22:27:36.354Z,87.92
2018-01-07T22:30:12.255Z,88.02
2018-01-07T22:32:47.359Z,88.20
2018-01-07T22:35:22.668Z,88.35
2018-01-07T22:37:57.249Z,88.36
2018-01-07T22:40:32.242Z,88.20
2018-01-07T22:43:07.580Z,87.99
2018-01-07T22:45:42.566Z,87.86
2018-01-07T22:48:18.519Z,87.97
2018-01-07T22:50:53.256Z,88.08
2018-01-07T22:53:28.385Z,88.13
2018-01-07T22:56:04.699Z,88.23
2018-01-07T22:58:40.243Z,88.25
2018-01-07T23:01:15.729Z,88.14
2018-01-07T23:03:50.522Z,88.13
2018-01-07T23:06:25.287Z,88.67
2018-01-07T23:08:59.932Z,88.58
2018-01-07T23:11:35.406Z,88.35
2018-01-07T23:14:09.797Z,88.31
2018-01-07T23:16:44.378Z,88.23
2018-01-07T23:19:19.277Z,88.21
2018-01-07T23:21:54.526Z,88.14
2018-01-07T23:24:30.200Z,88.38
2018-01-07T23:27:05.490Z,88.58
2018-01-07T23:29:40.644Z,88.75
2018-01-07T23:32:15.877Z,89.22
2018-01-07T23:34:51.352Z,89.31
2018-01-07T23:37:26.532Z,89.63
2018-01-07T23:40:01.725Z,89.94
2018-01-07T23:42:36.978Z,90.21
2018-01-07T23:45:11.708Z,90.84
2018-01-07T23:47:46.366Z,91.19
2018-01-07T23:50:20.732Z,91.22
2018-01-07T23:52:55.492Z,91.25
2018-01-07T23:55:30.373Z,91.45
2018-01-07T23:58:05.384Z,90.91
